createdAt,value
2023-03-10T00:00:00.618Z,12.48
2023-03-10T00:02:50.480Z,13.57
2023-03-10T00:05:41.992Z,13.60
2023-03-10T00:08:27.174Z,15.82
2023-03-10T00:11:17.573Z,11.88
2023-03-10T00:13:58.393Z,11.18
2023-03-10T00:16:45.056Z,10.30
2023-03-10T00:19:38.296Z,10.57
2023-03-10T00:22:24.750Z,11.07
2023-03-10T00:25:15.642Z,10.52
2023-03-10T00:28:07.419Z,11.70
2023-03-10T00:30:48.876Z,9.45
2023-03-10T00:33:38.301Z,10.77
2023-03-10T00:36:30.815Z,9.90
2023-03-10T00:39:13.568Z,10.02
2023-03-10T00:42:08.373Z,10.27
2023-03-10T00:44:54.831Z,10.13
2023-03-10T00:50:53.425Z,9.70
2023-03-10T00:53:34.752Z,11.10
2023-03-10T00:56:18.465Z,11.55
2023-03-10T00:59:01.196Z,11.68
2023-03-10T01:01:50.623Z,11.57
2023-03-10T01:04:37.384Z,11.73
2023-03-10T01:07:18.693Z,11.38
2023-03-10T01:10:00.443Z,11.30
2023-03-10T01:12:47.396Z,10.18
2023-03-10T01:18:26.181Z,9.35
2023-03-10T01:21:12.420Z,8.88
2023-03-10T01:23:56.251Z,9.98
2023-03-10T01:26:41.953Z,10.35
2023-03-10T01:29:22.599Z,9.05
2023-03-10T01:32:17.006Z,8.57
2023-03-10T01:35:05.410Z,8.20
2023-03-10T01:37:49.636Z,8.45
2023-03-10T01:40:33.446Z,8.80
2023-03-10T01:43:59.157Z,7.70
2023-03-10T01:46:59.512Z,7.28
2023-03-10T01:50:06.492Z,7.60
2023-03-10T01:52:56.660Z,8.25
2023-03-10T01:55:51.414Z,7.78
2023-03-10T01:58:40.437Z,7.05
2023-03-10T02:01:28.381Z,8.13
2023-03-10T02:04:25.277Z,7.35
2023-03-10T02:07:11.548Z,6.80
2023-03-10T02:10:00.471Z,7.60
2023-03-10T02:12:49.616Z,8.10
2023-03-10T02:15:33.181Z,7.70
2023-03-10T02:18:26.954Z,8.25
2023-03-10T02:24:41.213Z,8.45
2023-03-10T02:27:33.406Z,6.45
2023-03-10T02:30:24.578Z,6.93
2023-03-10T02:33:19.527Z,7.05
2023-03-10T02:36:15.487Z,5.88
2023-03-10T02:39:01.171Z,7.38
2023-03-10T02:41:53.441Z,8.30
2023-03-10T02:44:36.779Z,8.13
2023-03-10T02:47:18.391Z,8.38
2023-03-10T02:50:13.501Z,9.05
2023-03-10T02:53:16.399Z,7.97
2023-03-10T02:56:09.176Z,11.45
2023-03-10T02:58:57.543Z,10.70
2023-03-10T03:01:47.221Z,10.32
2023-03-10T03:04:29.056Z,15.55
2023-03-10T03:07:17.954Z,19.48
2023-03-10T03:10:04.574Z,15.35
2023-03-10T03:12:56.267Z,14.73
2023-03-10T03:15:39.380Z,14.68
2023-03-10T03:18:25.844Z,15.38
2023-03-10T03:21:23.694Z,15.38
2023-03-10T03:24:18.097Z,22.88
2023-03-10T03:26:59.779Z,18.15
2023-03-10T03:29:39.650Z,23.53
2023-03-10T03:32:33.818Z,38.35
2023-03-10T03:35:17.283Z,81.13
2023-03-10T03:38:06.402Z,53.67
2023-03-10T03:40:55.422Z,55.90
2023-03-10T03:43:50.814Z,39.72
2023-03-10T03:46:42.174Z,33.13
2023-03-10T03:49:29.178Z,24.23
2023-03-10T03:52:13.470Z,21.48
2023-03-10T03:55:02.167Z,18.00
2023-03-10T03:57:45.781Z,20.42
2023-03-10T04:00:36.399Z,16.50
2023-03-10T04:03:33.774Z,17.58
2023-03-10T04:06:13.451Z,19.67
2023-03-10T04:09:00.975Z,23.92
2023-03-10T04:11:44.089Z,23.80
2023-03-10T04:14:33.970Z,20.48
2023-03-10T04:17:18.407Z,18.75
2023-03-10T04:20:07.520Z,17.85
2023-03-10T04:22:59.529Z,16.48
2023-03-10T04:25:46.373Z,13.90
2023-03-10T04:28:31.639Z,24.45
2023-03-10T04:31:16.637Z,27.38
2023-03-10T04:34:02.606Z,25.63
2023-03-10T04:36:48.898Z,28.23
2023-03-10T04:39:33.433Z,24.65
2023-03-10T04:42:14.303Z,23.48
2023-03-10T04:44:52.193Z,15.98
2023-03-10T04:47:50.764Z,14.52
2023-03-10T04:50:31.492Z,12.82
2023-03-10T04:53:15.380Z,14.38
2023-03-10T04:56:01.246Z,12.80
2023-03-10T04:58:47.308Z,13.68
2023-03-10T05:01:39.074Z,12.32
2023-03-10T05:04:27.462Z,12.55
2023-03-10T05:07:15.848Z,19.35
2023-03-10T05:10:07.395Z,19.63
2023-03-10T05:12:57.777Z,15.32
2023-03-10T05:15:52.906Z,22.23
2023-03-10T05:18:46.608Z,21.50
2023-03-10T05:21:41.192Z,29.33
2023-03-10T05:24:27.616Z,31.02
2023-03-10T05:27:15.213Z,25.40
2023-03-10T05:29:57.153Z,23.90
2023-03-10T05:32:43.475Z,21.27
2023-03-10T05:35:29.421Z,19.85
2023-03-10T05:38:13.156Z,22.25
2023-03-10T05:40:57.455Z,20.00
2023-03-10T05:43:43.988Z,19.55
2023-03-10T05:46:36.641Z,31.45
2023-03-10T05:49:20.243Z,41.35
2023-03-10T05:52:07.423Z,55.58
2023-03-10T05:54:57.041Z,66.38
2023-03-10T05:57:46.399Z,61.10
2023-03-10T06:00:30.215Z,65.50
2023-03-10T06:03:40.716Z,67.20
2023-03-10T06:06:30.215Z,58.78
2023-03-10T06:09:17.315Z,58.22
2023-03-10T06:12:07.311Z,48.30
2023-03-10T06:14:51.302Z,38.58
2023-03-10T06:17:38.403Z,32.13
2023-03-10T06:20:24.842Z,28.73
2023-03-10T06:23:16.393Z,23.83
2023-03-10T06:26:11.503Z,23.77
2023-03-10T06:28:50.402Z,18.50
2023-03-10T06:31:37.619Z,18.42
2023-03-10T06:34:24.130Z,17.13
2023-03-10T06:37:08.322Z,16.15
2023-03-10T06:39:50.113Z,15.68
2023-03-10T06:42:34.657Z,14.70
2023-03-10T06:45:20.358Z,13.15
2023-03-10T06:48:01.850Z,12.57
2023-03-10T06:50:55.921Z,13.50
2023-03-10T06:53:45.222Z,12.00
2023-03-10T06:56:27.451Z,11.18
2023-03-10T06:59:11.354Z,12.20
2023-03-10T07:02:03.592Z,12.27
2023-03-10T07:04:45.384Z,12.20
2023-03-10T07:07:38.834Z,13.45
2023-03-10T07:10:22.631Z,10.57
2023-03-10T07:13:17.422Z,11.32
2023-03-10T07:16:00.861Z,10.23
2023-03-10T07:18:53.660Z,9.88
2023-03-10T07:21:54.616Z,10.55
2023-03-10T07:24:42.425Z,9.93
2023-03-10T07:27:46.361Z,9.77
2023-03-10T07:30:37.437Z,9.50
2023-03-10T07:33:18.330Z,9.60
2023-03-10T07:36:03.893Z,8.63
2023-03-10T07:38:59.536Z,7.68
2023-03-10T07:41:42.550Z,7.65
2023-03-10T07:44:33.328Z,7.53
2023-03-10T07:47:14.592Z,7.50
2023-03-10T07:49:59.437Z,7.13
2023-03-10T07:52:37.429Z,7.30
2023-03-10T07:55:21.254Z,7.95
2023-03-10T07:58:28.264Z,6.70
2023-03-10T08:01:39.473Z,7.30
2023-03-10T08:04:32.243Z,7.15
2023-03-10T08:07:38.224Z,7.35
2023-03-10T08:10:25.427Z,7.05
2023-03-10T08:13:06.500Z,7.05
2023-03-10T08:15:54.263Z,7.22
2023-03-10T08:18:35.822Z,6.80
2023-03-10T08:21:20.025Z,6.53
2023-03-10T08:24:10.100Z,4.78
2023-03-10T08:26:56.806Z,4.68
2023-03-10T08:29:48.837Z,5.05
2023-03-10T08:32:44.377Z,4.72
2023-03-10T08:35:36.437Z,4.75
2023-03-10T08:38:26.809Z,4.80
2023-03-10T08:41:16.628Z,4.35
2023-03-10T08:44:04.082Z,4.53
2023-03-10T08:46:46.605Z,4.68
2023-03-10T08:49:46.970Z,4.97
2023-03-10T08:52:30.433Z,5.45
2023-03-10T08:55:18.434Z,5.22
2023-03-10T08:58:01.794Z,5.07
2023-03-10T09:00:58.579Z,5.32
2023-03-10T09:03:52.663Z,6.50
2023-03-10T09:06:51.490Z,5.50
2023-03-10T09:09:32.498Z,5.20
2023-03-10T09:12:17.500Z,6.00
2023-03-10T09:15:08.835Z,6.75
2023-03-10T09:17:49.449Z,5.93
2023-03-10T09:20:30.093Z,6.55
2023-03-10T09:23:11.220Z,6.63
2023-03-10T09:26:07.461Z,6.88
2023-03-10T09:29:02.116Z,6.13
2023-03-10T09:31:50.439Z,6.10
2023-03-10T09:34:30.619Z,5.78
2023-03-10T09:37:20.492Z,6.13
2023-03-10T09:40:01.105Z,5.18
2023-03-10T09:42:43.439Z,4.50
2023-03-10T09:45:31.997Z,4.32
2023-03-10T09:48:36.400Z,3.70
2023-03-10T09:51:22.418Z,4.20
2023-03-10T09:54:50.522Z,3.92
2023-03-10T09:57:39.413Z,3.95
2023-03-10T10:00:37.278Z,3.90
2023-03-10T10:03:52.213Z,3.72
2023-03-10T10:06:34.262Z,3.72
2023-03-10T10:09:43.462Z,3.63
2023-03-10T10:12:26.771Z,4.47
2023-03-10T10:18:40.119Z,4.20
2023-03-10T10:24:28.439Z,3.97
2023-03-10T10:27:06.396Z,4.07
2023-03-10T10:29:56.372Z,3.80
2023-03-10T10:32:55.463Z,3.58
2023-03-10T10:35:39.582Z,3.92
2023-03-10T10:41:40.692Z,4.00
2023-03-10T10:44:26.522Z,4.13
2023-03-10T10:47:40.155Z,5.60
2023-03-10T10:50:26.301Z,4.22
2023-03-10T10:53:31.826Z,4.55
2023-03-10T10:56:19.385Z,4.95
2023-03-10T10:59:33.270Z,3.50
2023-03-10T11:02:50.398Z,2.33
2023-03-10T11:05:46.489Z,2.70
2023-03-10T11:08:32.997Z,2.08
2023-03-10T11:11:49.927Z,2.60
2023-03-10T11:15:13.427Z,2.08
2023-03-10T11:18:26.394Z,2.60
2023-03-10T11:24:17.703Z,2.85
2023-03-10T11:27:22.684Z,2.67
2023-03-10T11:30:46.118Z,2.65
2023-03-10T11:34:16.672Z,2.67
2023-03-10T11:37:32.260Z,3.28
2023-03-10T11:40:35.498Z,2.67
2023-03-10T11:43:45.722Z,2.85
2023-03-10T11:46:45.393Z,2.47
2023-03-10T11:49:29.432Z,2.75
2023-03-10T11:52:14.890Z,2.30
2023-03-10T11:55:21.298Z,2.63
2023-03-10T11:58:00.652Z,2.78
2023-03-10T12:00:55.400Z,2.55
2023-03-10T12:03:40.607Z,2.75
2023-03-10T12:06:42.768Z,2.38
2023-03-10T12:09:48.171Z,2.40
2023-03-10T12:12:43.242Z,2.67
2023-03-10T12:15:51.105Z,2.42
2023-03-10T12:18:47.669Z,2.00
2023-03-10T12:21:31.879Z,2.35
2023-03-10T12:24:40.559Z,2.33
2023-03-10T12:27:19.452Z,2.55
2023-03-10T12:30:05.309Z,2.47
2023-03-10T12:32:59.035Z,2.25
2023-03-10T12:35:55.620Z,2.50
2023-03-10T12:38:58.421Z,2.45
2023-03-10T12:41:54.941Z,2.15
2023-03-10T12:44:51.845Z,2.63
2023-03-10T12:47:46.006Z,2.20
2023-03-10T12:50:38.295Z,2.00
2023-03-10T12:54:00.485Z,2.35
2023-03-10T12:56:53.318Z,1.95
2023-03-10T12:59:43.475Z,2.25
2023-03-10T13:02:38.395Z,2.05
2023-03-10T13:05:33.343Z,2.25
2023-03-10T13:08:26.324Z,2.45
2023-03-10T13:11:16.390Z,1.80
2023-03-10T13:14:16.392Z,2.38
2023-03-10T13:17:16.433Z,2.25
2023-03-10T13:20:15.453Z,2.10
2023-03-10T13:23:11.496Z,2.08
2023-03-10T13:26:01.497Z,2.20
2023-03-10T13:28:59.192Z,2.00
2023-03-10T13:32:02.396Z,2.33
2023-03-10T13:34:41.429Z,2.30
2023-03-10T13:37:24.023Z,2.13
2023-03-10T13:40:17.566Z,2.72
2023-03-10T13:43:21.322Z,2.10
2023-03-10T13:46:04.125Z,2.35
2023-03-10T13:48:44.003Z,2.80
2023-03-10T13:51:39.469Z,2.00
2023-03-10T13:54:50.260Z,2.50
2023-03-10T13:57:53.385Z,2.63
2023-03-10T14:00:33.902Z,3.03
2023-03-10T14:03:23.480Z,2.10
2023-03-10T14:06:24.815Z,1.85
2023-03-10T14:09:24.974Z,2.00
2023-03-10T14:12:08.100Z,1.88
2023-03-10T14:14:53.905Z,1.80
2023-03-10T14:17:42.410Z,2.00
2023-03-10T14:20:37.253Z,1.73
2023-03-10T14:23:41.060Z,1.75
2023-03-10T14:26:22.742Z,1.35
2023-03-10T14:29:23.804Z,1.73
2023-03-10T14:32:21.613Z,1.73
2023-03-10T14:35:08.545Z,1.70
2023-03-10T14:37:55.414Z,1.77
2023-03-10T14:40:50.447Z,1.40
2023-03-10T14:43:32.392Z,1.70
2023-03-10T14:46:16.581Z,1.85
2023-03-10T14:48:57.739Z,1.83
2023-03-10T14:51:41.392Z,1.73
2023-03-10T14:54:22.995Z,1.40
2023-03-10T14:57:03.451Z,1.65
2023-03-10T14:59:47.687Z,2.25
2023-03-10T15:02:32.863Z,1.90
2023-03-10T15:05:18.672Z,2.08
2023-03-10T15:08:05.413Z,1.75
2023-03-10T15:11:01.113Z,2.03
2023-03-10T15:13:48.414Z,1.67
2023-03-10T15:16:29.100Z,2.03
2023-03-10T15:19:18.824Z,1.65
2023-03-10T15:21:58.647Z,2.10
2023-03-10T15:24:44.414Z,2.33
2023-03-10T15:27:33.632Z,2.38
2023-03-10T15:30:23.445Z,2.28
2023-03-10T15:33:06.964Z,2.38
2023-03-10T15:35:54.342Z,2.45
2023-03-10T15:39:05.064Z,2.40
2023-03-10T15:41:51.801Z,1.90
2023-03-10T15:44:32.910Z,2.47
2023-03-10T15:47:25.519Z,2.38
2023-03-10T15:50:18.187Z,2.00
2023-03-10T15:53:18.199Z,2.58
2023-03-10T15:55:57.388Z,2.65
2023-03-10T15:58:39.926Z,3.20
2023-03-10T16:01:40.936Z,3.22
2023-03-10T16:04:23.700Z,3.38
2023-03-10T16:07:17.452Z,3.75
2023-03-10T16:10:07.350Z,4.50
2023-03-10T16:12:53.308Z,4.10
2023-03-10T16:15:43.491Z,4.15
2023-03-10T16:18:32.093Z,3.60
2023-03-10T16:21:18.427Z,3.40
2023-03-10T16:24:12.549Z,3.83
2023-03-10T16:26:59.757Z,3.17
2023-03-10T16:29:43.874Z,4.13
2023-03-10T16:32:46.547Z,3.72
2023-03-10T16:35:33.854Z,3.42
2023-03-10T16:38:17.724Z,4.13
2023-03-10T16:41:15.349Z,4.05
2023-03-10T16:43:59.257Z,4.25
2023-03-10T16:46:42.905Z,4.07
2023-03-10T16:49:41.652Z,3.83
2023-03-10T16:52:23.717Z,4.30
2023-03-10T16:55:08.404Z,4.20
2023-03-10T16:57:53.704Z,4.57
2023-03-10T17:00:40.484Z,3.92
2023-03-10T17:03:40.749Z,3.70
2023-03-10T17:06:28.728Z,3.92
2023-03-10T17:09:17.903Z,4.35
2023-03-10T17:12:08.442Z,4.50
2023-03-10T17:14:50.904Z,4.95
2023-03-10T17:17:37.432Z,4.97
2023-03-10T17:20:26.550Z,4.82
2023-03-10T17:23:27.770Z,4.22
2023-03-10T17:26:15.007Z,5.72
2023-03-10T17:28:54.918Z,4.47
2023-03-10T17:31:50.835Z,5.43
2023-03-10T17:34:44.124Z,5.30
2023-03-10T17:37:30.113Z,5.03
2023-03-10T17:40:19.054Z,4.90
2023-03-10T17:43:12.941Z,5.07
2023-03-10T17:46:13.898Z,5.78
2023-03-10T17:49:01.028Z,5.35
2023-03-10T17:51:46.047Z,5.82
2023-03-10T17:54:28.024Z,5.25
2023-03-10T17:57:22.388Z,5.68
2023-03-10T18:00:21.731Z,4.90
2023-03-10T18:03:07.436Z,6.20
2023-03-10T18:05:56.903Z,5.20
2023-03-10T18:08:38.795Z,4.90
2023-03-10T18:11:25.011Z,5.30
2023-03-10T18:14:25.929Z,5.60
2023-03-10T18:17:12.701Z,5.93
2023-03-10T18:19:55.667Z,5.90
2023-03-10T18:22:38.054Z,7.10
2023-03-10T18:25:27.682Z,6.10
2023-03-10T18:28:11.487Z,6.25
2023-03-10T18:31:02.500Z,13.65
2023-03-10T18:33:47.956Z,8.70
2023-03-10T18:36:30.953Z,8.35
2023-03-10T18:39:15.447Z,8.77
2023-03-10T18:42:00.537Z,9.25
2023-03-10T18:45:00.539Z,8.27
2023-03-10T18:47:53.378Z,8.68
2023-03-10T18:50:40.180Z,7.30
2023-03-10T18:53:26.410Z,8.50
2023-03-10T18:56:12.990Z,8.30
2023-03-10T18:58:57.495Z,9.55
2023-03-10T19:01:40.316Z,9.75
2023-03-10T19:04:31.993Z,12.27
2023-03-10T19:07:30.157Z,22.27
2023-03-10T19:10:15.423Z,15.20
2023-03-10T19:13:03.708Z,14.38
2023-03-10T19:15:45.474Z,19.15
2023-03-10T19:18:36.704Z,20.25
2023-03-10T19:21:10.019Z,23.83
2023-03-10T19:24:00.807Z,21.05
2023-03-10T19:26:49.549Z,14.50
2023-03-10T19:29:22.506Z,12.38
2023-03-10T19:32:07.927Z,11.40
2023-03-10T19:34:54.096Z,9.45
2023-03-10T19:37:34.937Z,9.13
2023-03-10T19:40:20.696Z,8.35
2023-03-10T19:42:59.703Z,8.32
2023-03-10T19:45:46.450Z,7.75
2023-03-10T19:48:38.853Z,9.02
2023-03-10T19:51:24.645Z,9.43
2023-03-10T19:54:08.484Z,8.95
2023-03-10T19:56:53.267Z,9.98
2023-03-10T19:59:33.386Z,9.60
2023-03-10T20:02:26.345Z,9.98
2023-03-10T20:05:05.426Z,9.75
2023-03-10T20:07:46.161Z,9.50
2023-03-10T20:10:27.631Z,8.70
2023-03-10T20:13:08.208Z,9.77
2023-03-10T20:15:49.324Z,9.98
2023-03-10T20:18:27.197Z,9.02
2023-03-10T20:21:12.245Z,10.93
2023-03-10T20:23:48.608Z,11.90
2023-03-10T20:26:29.931Z,14.63
2023-03-10T20:29:10.433Z,16.20
2023-03-10T20:31:55.968Z,16.50
2023-03-10T20:34:37.372Z,16.25
2023-03-10T20:37:15.538Z,17.50
2023-03-10T20:39:58.732Z,19.05
2023-03-10T20:42:47.518Z,16.08
2023-03-10T20:45:25.410Z,14.30
2023-03-10T20:48:06.612Z,13.70
2023-03-10T20:50:51.112Z,13.80
2023-03-10T20:53:35.191Z,14.27
2023-03-10T20:56:17.160Z,13.93
2023-03-10T20:59:02.393Z,16.85
2023-03-10T21:01:42.765Z,17.27
2023-03-10T21:04:17.600Z,17.60
2023-03-10T21:07:01.456Z,17.90
2023-03-10T21:09:45.233Z,16.42
2023-03-10T21:12:32.091Z,14.18
2023-03-10T21:15:12.408Z,14.95
2023-03-10T21:17:53.341Z,15.68
2023-03-10T21:20:36.436Z,15.70
2023-03-10T21:23:20.318Z,16.30
2023-03-10T21:28:36.257Z,17.67
2023-03-10T21:31:17.032Z,18.08
2023-03-10T21:33:54.696Z,18.63
2023-03-10T21:36:43.418Z,19.10
2023-03-10T21:39:23.204Z,18.15
2023-03-10T21:42:01.557Z,20.02
2023-03-10T21:44:42.676Z,17.35
2023-03-10T21:47:29.384Z,15.60
2023-03-10T21:50:10.106Z,16.92
2023-03-10T21:52:56.861Z,17.98
2023-03-10T21:55:37.434Z,18.27
2023-03-10T21:58:18.470Z,18.80
2023-03-10T22:01:02.535Z,19.83
2023-03-10T22:03:43.022Z,18.05
2023-03-10T22:06:22.139Z,19.05
2023-03-10T22:09:08.097Z,22.45
2023-03-10T22:11:48.525Z,23.38
2023-03-10T22:14:24.042Z,22.85
2023-03-10T22:17:06.203Z,22.73
2023-03-10T22:19:41.613Z,21.83
2023-03-10T22:22:25.427Z,21.58
2023-03-10T22:24:58.274Z,20.08
2023-03-10T22:27:33.491Z,23.63
2023-03-10T22:30:10.390Z,21.20
2023-03-10T22:32:51.116Z,20.70
2023-03-10T22:35:24.180Z,23.55
2023-03-10T22:38:02.523Z,25.77
2023-03-10T22:40:40.758Z,25.63
2023-03-10T22:43:21.776Z,25.23
2023-03-10T22:46:02.246Z,26.35
2023-03-10T22:48:40.475Z,25.40
2023-03-10T22:51:27.036Z,24.70
2023-03-10T22:54:02.463Z,22.88
2023-03-10T22:56:42.324Z,18.98
2023-03-10T22:59:23.331Z,11.25
2023-03-10T23:02:05.719Z,13.02
2023-03-10T23:04:48.717Z,11.75
2023-03-10T23:07:24.558Z,6.32
2023-03-10T23:10:02.981Z,7.35
2023-03-10T23:12:41.401Z,5.93
2023-03-10T23:15:39.459Z,4.88
2023-03-10T23:18:22.634Z,4.38
2023-03-10T23:21:00.307Z,4.15
2023-03-10T23:23:55.343Z,3.35
2023-03-10T23:26:39.075Z,4.68
2023-03-10T23:29:25.254Z,4.80
2023-03-10T23:34:53.315Z,4.63
2023-03-10T23:37:55.055Z,4.38
2023-03-10T23:40:39.710Z,3.75
2023-03-10T23:43:21.024Z,3.97
2023-03-10T23:46:14.630Z,3.65
2023-03-10T23:49:00.772Z,3.83
2023-03-10T23:51:45.247Z,3.47
2023-03-10T23:54:34.950Z,3.28
2023-03-10T23:57:25.383Z,3.05
